Time;durP1;ratioP1;P1;durP2;ratioP2;P2;SDS_P1;SDS_P2;PMS_P1;PMS_P2;Temp;Humidity;BMP_temperature;BMP_pressure;BME280_temperature;BME280_humidity;BME280_pressure;Samples;Min_cycle;Max_cycle;Signal;HPM_P1;HPM_P2
2023/05/13 00:01:14;;;;;;;0.22;0.22;;;9.60;99.90;;;;;;5056652;28;20031;-78
2023/05/13 00:03:39;;;;;;;0.15;0.15;;;9.70;99.90;;;;;;5053551;28;20024;-79
2023/05/13 00:06:05;;;;;;;0.43;0.28;;;9.60;99.90;;;;;;5057576;28;20032;-78
2023/05/13 00:08:31;;;;;;;0.68;0.55;;;9.50;99.90;;;;;;5051298;28;20025;-78
2023/05/13 00:10:57;;;;;;;0.22;0.22;;;9.60;99.90;;;;;;5047615;28;20029;-79
2023/05/13 00:13:22;;;;;;;0.10;0.10;;;9.60;99.90;;;;;;5052891;28;20029;-79
2023/05/13 00:15:48;;;;;;;0.38;0.32;;;9.60;99.90;;;;;;5033061;28;20764;-78
2023/05/13 00:18:14;;;;;;;0.10;0.10;;;9.60;99.90;;;;;;5053240;28;20563;-80
2023/05/13 00:20:39;;;;;;;0.10;0.10;;;9.50;99.90;;;;;;5044927;28;20041;-79
2023/05/13 00:23:06;;;;;;;0.20;0.20;;;9.50;99.90;;;;;;5058095;28;20487;-77
2023/05/13 00:25:32;;;;;;;0.03;0.03;;;9.50;99.90;;;;;;5055321;28;20017;-81
2023/05/13 00:27:58;;;;;;;0.10;0.10;;;9.50;99.90;;;;;;5056517;28;20444;-78
2023/05/13 00:30:24;;;;;;;0.10;0.10;;;9.50;99.90;;;;;;5057154;28;20025;-77
2023/05/13 00:32:49;;;;;;;0.32;0.32;;;9.50;99.90;;;;;;5053646;28;20633;-78
2023/05/13 00:35:15;;;;;;;0.10;0.10;;;9.50;99.90;;;;;;5047525;28;20504;-77
2023/05/13 00:37:41;;;;;;;0.40;0.40;;;9.50;99.90;;;;;;5050308;28;20032;-78
2023/05/13 00:40:19;;;;;;;0.25;0.25;;;9.50;99.90;;;;;;5048998;28;20033;-77
2023/05/13 00:42:45;;;;;;;0.30;0.30;;;9.50;99.90;;;;;;5057702;28;20059;-77
2023/05/13 00:45:11;;;;;;;0.10;0.10;;;9.40;99.90;;;;;;5054020;28;20029;-76
2023/05/13 00:47:39;;;;;;;1.33;1.10;;;9.40;99.90;;;;;;5058577;28;20020;-77
2023/05/13 00:50:06;;;;;;;0.10;0.10;;;9.40;99.90;;;;;;5051997;28;20045;-76
2023/05/13 00:52:32;;;;;;;0.10;0.10;;;9.30;99.90;;;;;;5056369;28;20108;-78
2023/05/13 00:54:58;;;;;;;0.10;0.10;;;9.30;99.90;;;;;;5050052;28;20035;-77
2023/05/13 00:57:24;;;;;;;0.20;0.20;;;9.30;99.90;;;;;;5050423;28;20041;-79
2023/05/13 00:59:49;;;;;;;0.15;0.15;;;9.20;99.90;;;;;;5033411;28;20044;-76
2023/05/13 01:02:18;;;;;;;0.15;0.15;;;9.20;99.90;;;;;;5058461;28;20500;-77
2023/05/13 01:04:53;;;;;;;0.50;0.50;;;9.30;99.90;;;;;;5055353;28;20029;-79
2023/05/13 01:07:38;;;;;;;0.08;0.08;;;9.30;99.90;;;;;;5061902;28;20660;-81
2023/05/13 01:10:22;;;;;;;0.10;0.10;;;9.30;99.90;;;;;;5047710;28;20791;-78
2023/05/13 01:12:52;;;;;;;0.10;0.10;;;9.30;99.90;;;;;;5055385;28;20775;-80
2023/05/13 01:15:24;;;;;;;0.10;0.10;;;9.20;99.90;;;;;;5048765;28;20021;-79
2023/05/13 01:17:53;;;;;;;1.55;1.00;;;9.20;99.90;;;;;;5038065;28;20111;-77
2023/05/13 01:20:22;;;;;;;0.10;0.10;;;9.20;99.90;;;;;;5049320;28;20106;-78
2023/05/13 01:22:47;;;;;;;0.10;0.10;;;9.20;99.90;;;;;;5061001;28;20090;-80
2023/05/13 01:25:13;;;;;;;0.10;0.10;;;9.10;99.90;;;;;;5059208;28;20024;-77
2023/05/13 01:27:39;;;;;;;0.10;0.10;;;9.10;99.90;;;;;;5055850;28;20097;-79
2023/05/13 01:30:07;;;;;;;0.10;0.10;;;9.00;99.90;;;;;;5058345;28;20048;-77
2023/05/13 01:32:33;;;;;;;0.10;0.10;;;8.90;99.90;;;;;;5058142;28;20040;-78
2023/05/13 01:35:00;;;;;;;0.10;0.10;;;9.00;99.90;;;;;;5055355;28;20024;-77
2023/05/13 01:37:27;;;;;;;0.65;0.63;;;9.00;99.90;;;;;;5050698;28;20037;-77
2023/05/13 01:39:53;;;;;;;0.13;0.13;;;9.00;99.90;;;;;;5054767;28;20076;-77
2023/05/13 01:42:19;;;;;;;0.45;0.45;;;9.00;99.90;;;;;;5056313;28;20549;-79
2023/05/13 01:44:45;;;;;;;0.65;0.65;;;8.90;99.90;;;;;;5057019;28;20039;-77
2023/05/13 01:47:11;;;;;;;0.10;0.10;;;9.00;99.90;;;;;;5053347;28;20031;-77
2023/05/13 01:49:36;;;;;;;0.20;0.20;;;8.90;99.90;;;;;;5064131;28;20067;-76
2023/05/13 01:52:03;;;;;;;0.03;0.03;;;9.00;99.90;;;;;;5057938;28;20028;-78
2023/05/13 01:54:29;;;;;;;0.10;0.10;;;9.00;99.90;;;;;;5057769;28;20025;-78
2023/05/13 01:56:54;;;;;;;0.15;0.15;;;8.80;99.90;;;;;;5054678;28;20031;-76
2023/05/13 01:59:20;;;;;;;0.57;0.57;;;8.70;99.90;;;;;;5062168;28;20037;-76
2023/05/13 02:01:46;;;;;;;0.88;0.63;;;8.70;99.90;;;;;;5059745;28;20033;-77
2023/05/13 02:04:12;;;;;;;1.10;1.00;;;8.70;99.90;;;;;;5060530;28;20032;-78
2023/05/13 02:06:39;;;;;;;0.10;0.10;;;8.60;99.90;;;;;;5055539;28;20048;-78
2023/05/13 02:09:05;;;;;;;0.10;0.10;;;8.50;99.90;;;;;;5056500;28;20035;-76
2023/05/13 02:11:30;;;;;;;0.20;0.20;;;8.50;99.90;;;;;;5038232;28;20032;-76
2023/05/13 02:13:56;;;;;;;0.20;0.20;;;8.50;99.90;;;;;;5060720;28;20476;-75
2023/05/13 02:16:22;;;;;;;0.20;0.20;;;8.50;99.90;;;;;;5052417;28;20027;-76
2023/05/13 02:18:47;;;;;;;0.10;0.10;;;8.40;99.90;;;;;;5057923;28;20719;-77
2023/05/13 02:21:13;;;;;;;0.47;0.47;;;8.40;99.90;;;;;;5053751;28;20052;-78
2023/05/13 02:23:39;;;;;;;0.20;0.20;;;8.40;99.90;;;;;;5062162;28;20431;-78
2023/05/13 02:26:05;;;;;;;0.10;0.10;;;8.40;99.90;;;;;;5061263;28;20028;-77
2023/05/13 02:28:30;;;;;;;0.30;0.30;;;8.50;99.90;;;;;;5060143;28;20032;-76
2023/05/13 02:30:56;;;;;;;0.10;0.10;;;8.50;99.90;;;;;;5059106;28;20028;-76
2023/05/13 02:33:22;;;;;;;0.10;0.10;;;8.50;99.90;;;;;;5040397;28;20096;-76
2023/05/13 02:35:48;;;;;;;0.35;0.35;;;8.50;99.90;;;;;;5057857;28;20031;-78
2023/05/13 02:38:13;;;;;;;0.15;0.15;;;8.60;99.90;;;;;;5058373;28;20032;-76
2023/05/13 02:40:39;;;;;;;0.40;0.40;;;8.60;99.90;;;;;;5052366;28;20052;-77
2023/05/13 02:43:05;;;;;;;0.17;0.17;;;8.60;99.90;;;;;;5056529;28;20047;-77
2023/05/13 02:45:31;;;;;;;0.10;0.10;;;8.60;99.90;;;;;;5059828;28;20056;-77
2023/05/13 02:47:57;;;;;;;0.10;0.10;;;8.50;99.90;;;;;;5057322;28;20315;-77
2023/05/13 02:50:23;;;;;;;0.55;0.55;;;8.50;99.90;;;;;;5048850;28;20589;-78
2023/05/13 02:52:49;;;;;;;0.32;0.32;;;8.50;99.90;;;;;;5057975;28;20718;-79
2023/05/13 02:55:14;;;;;;;0.10;0.10;;;8.50;99.90;;;;;;5054159;28;20714;-76
2023/05/13 02:57:41;;;;;;;1.08;1.00;;;8.50;99.90;;;;;;5051264;28;20458;-77
2023/05/13 03:00:08;;;;;;;0.10;0.10;;;8.30;99.90;;;;;;5061470;28;20090;-77
2023/05/13 03:02:35;;;;;;;0.55;0.47;;;8.30;99.90;;;;;;5062506;28;20036;-78
2023/05/13 03:05:00;;;;;;;0.50;0.50;;;8.30;99.90;;;;;;5053737;28;20020;-77
2023/05/13 03:07:26;;;;;;;0.10;0.10;;;8.20;99.90;;;;;;5059791;28;20693;-76
2023/05/13 03:09:52;;;;;;;0.10;0.10;;;8.10;99.90;;;;;;5035419;28;20044;-77
2023/05/13 03:12:18;;;;;;;0.10;0.10;;;8.00;99.90;;;;;;5052833;28;20025;-77
2023/05/13 03:14:43;;;;;;;0.10;0.10;;;8.00;99.90;;;;;;5047672;28;20051;-79
2023/05/13 03:17:10;;;;;;;0.10;0.10;;;8.00;99.90;;;;;;5057169;28;20830;-77
2023/05/13 03:19:37;;;;;;;0.00;0.00;;;8.00;99.90;;;;;;5061833;28;20029;-75
2023/05/13 03:22:03;;;;;;;0.35;0.28;;;8.00;99.90;;;;;;5061075;28;20090;-77
2023/05/13 03:24:29;;;;;;;0.40;0.40;;;8.00;99.90;;;;;;5051802;28;20021;-77
2023/05/13 03:26:56;;;;;;;0.43;0.43;;;8.10;99.90;;;;;;5045265;28;20077;-77
2023/05/13 03:29:22;;;;;;;0.10;0.10;;;8.10;99.90;;;;;;5060871;28;20029;-79
2023/05/13 03:31:48;;;;;;;0.13;0.13;;;8.10;99.90;;;;;;5042131;28;20039;-77
2023/05/13 03:34:14;;;;;;;0.20;0.20;;;8.10;99.90;;;;;;5056766;28;20062;-81
2023/05/13 03:36:40;;;;;;;0.30;0.30;;;8.10;99.90;;;;;;5059156;28;20051;-78
2023/05/13 03:39:05;;;;;;;0.00;0.00;;;8.20;99.90;;;;;;5058744;28;20037;-77
2023/05/13 03:41:31;;;;;;;0.10;0.10;;;8.10;99.90;;;;;;5058562;28;20546;-76
2023/05/13 03:43:57;;;;;;;0.30;0.30;;;8.00;99.90;;;;;;5052412;28;20025;-77
2023/05/13 03:46:23;;;;;;;0.10;0.10;;;8.00;99.90;;;;;;5055155;28;20481;-78
2023/05/13 03:48:48;;;;;;;0.15;0.15;;;8.00;99.90;;;;;;5056986;28;20099;-79
2023/05/13 03:51:14;;;;;;;0.20;0.20;;;8.10;99.90;;;;;;5060207;28;20445;-77
2023/05/13 03:53:40;;;;;;;0.20;0.20;;;8.10;99.90;;;;;;5054850;28;20090;-76
2023/05/13 03:56:06;;;;;;;0.20;0.20;;;8.10;99.90;;;;;;5054484;28;20032;-77
2023/05/13 03:58:32;;;;;;;0.20;0.20;;;8.10;99.90;;;;;;5055902;28;20035;-77
2023/05/13 04:00:58;;;;;;;0.40;0.40;;;8.10;99.90;;;;;;5052376;28;20057;-76
2023/05/13 04:03:23;;;;;;;0.10;0.10;;;8.00;99.90;;;;;;5055899;28;20133;-77
2023/05/13 04:05:50;;;;;;;0.10;0.10;;;8.00;99.90;;;;;;5065917;28;20024;-78
2023/05/13 04:08:16;;;;;;;0.50;0.50;;;8.10;99.90;;;;;;5056028;28;20538;-76
2023/05/13 04:10:41;;;;;;;0.10;0.10;;;8.10;99.90;;;;;;5060709;28;20024;-79
2023/05/13 04:13:07;;;;;;;0.20;0.20;;;8.20;99.90;;;;;;5049738;28;20059;-77
2023/05/13 04:15:33;;;;;;;0.50;0.50;;;8.10;99.90;;;;;;5055079;28;20013;-77
2023/05/13 04:17:59;;;;;;;0.10;0.10;;;8.10;99.90;;;;;;5053183;28;20765;-77
2023/05/13 04:20:24;;;;;;;0.10;0.10;;;8.00;99.90;;;;;;5053187;28;20036;-77
2023/05/13 04:22:50;;;;;;;0.25;0.25;;;7.90;99.90;;;;;;5048941;28;20669;-76
2023/05/13 04:25:16;;;;;;;0.10;0.10;;;7.90;99.90;;;;;;5044024;28;20442;-76
2023/05/13 04:27:42;;;;;;;0.10;0.10;;;7.80;99.90;;;;;;5058167;28;20032;-77
2023/05/13 04:30:09;;;;;;;0.45;0.45;;;7.60;99.90;;;;;;5060076;28;20056;-76
2023/05/13 04:32:35;;;;;;;0.10;0.10;;;7.80;99.90;;;;;;5047876;28;20074;-78
2023/05/13 04:35:00;;;;;;;0.10;0.10;;;7.90;99.90;;;;;;5049993;28;20025;-78
2023/05/13 04:37:26;;;;;;;0.10;0.10;;;7.80;99.90;;;;;;5048155;28;20039;-77
2023/05/13 04:39:52;;;;;;;0.95;0.40;;;7.70;99.90;;;;;;5054225;28;20036;-78
2023/05/13 04:42:17;;;;;;;0.30;0.30;;;7.80;99.90;;;;;;5052163;28;20036;-77
2023/05/13 04:44:43;;;;;;;0.30;0.30;;;7.90;99.90;;;;;;5055059;28;20459;-78
2023/05/13 04:47:09;;;;;;;0.10;0.10;;;7.90;99.90;;;;;;5047458;28;20082;-79
2023/05/13 04:49:35;;;;;;;0.13;0.13;;;8.10;99.90;;;;;;5045350;28;20773;-77
2023/05/13 04:52:02;;;;;;;0.10;0.10;;;8.20;99.90;;;;;;5042032;28;20029;-77
2023/05/13 04:54:28;;;;;;;0.10;0.10;;;8.20;99.90;;;;;;5042026;28;20147;-79
2023/05/13 04:56:54;;;;;;;0.10;0.10;;;8.30;99.90;;;;;;5045532;28;20048;-78
2023/05/13 04:59:20;;;;;;;0.20;0.20;;;8.40;99.90;;;;;;5045263;28;20052;-78
2023/05/13 05:01:45;;;;;;;0.63;0.63;;;8.40;99.90;;;;;;5033647;28;20043;-78
2023/05/13 05:04:12;;;;;;;0.10;0.10;;;8.50;99.90;;;;;;5058588;28;20055;-78
2023/05/13 05:06:37;;;;;;;0.10;0.10;;;8.80;99.90;;;;;;5060245;28;20029;-77
2023/05/13 05:09:03;;;;;;;0.10;0.10;;;9.00;99.90;;;;;;5061462;28;20115;-77
2023/05/13 05:11:29;;;;;;;0.10;0.10;;;9.40;99.90;;;;;;5050608;28;20036;-79
2023/05/13 05:13:55;;;;;;;0.20;0.20;;;9.20;99.90;;;;;;5038359;28;20020;-76
2023/05/13 05:16:21;;;;;;;0.63;0.28;;;9.20;99.90;;;;;;5057837;28;20033;-77
2023/05/13 05:18:46;;;;;;;0.10;0.10;;;9.30;99.90;;;;;;5065085;28;20134;-78
2023/05/13 05:21:12;;;;;;;0.10;0.10;;;9.40;99.90;;;;;;5032301;28;20037;-76
2023/05/13 05:23:38;;;;;;;0.10;0.10;;;9.60;99.90;;;;;;5052549;28;20028;-75
2023/05/13 05:26:04;;;;;;;0.20;0.20;;;10.20;99.90;;;;;;5050848;28;20033;-78
2023/05/13 05:28:30;;;;;;;0.10;0.10;;;10.80;99.90;;;;;;5059646;28;20167;-77
2023/05/13 05:30:56;;;;;;;0.22;0.22;;;11.40;99.90;;;;;;5053734;28;20028;-76
2023/05/13 05:33:22;;;;;;;0.10;0.10;;;11.90;99.90;;;;;;5062229;28;20445;-78
2023/05/13 05:35:48;;;;;;;0.15;0.15;;;11.90;99.90;;;;;;5063740;28;20082;-77
2023/05/13 05:38:14;;;;;;;0.10;0.10;;;11.70;99.90;;;;;;5053248;28;20035;-78
2023/05/13 05:40:42;;;;;;;0.10;0.10;;;11.60;99.90;;;;;;5061920;28;20306;-77
2023/05/13 05:43:09;;;;;;;0.00;0.00;;;13.50;99.90;;;;;;5055259;28;20035;-79
2023/05/13 05:45:36;;;;;;;0.30;0.30;;;15.10;97.00;;;;;;5059572;28;20774;-76
2023/05/13 05:48:02;;;;;;;0.10;0.10;;;13.80;96.80;;;;;;5060274;28;20096;-77
2023/05/13 05:50:28;;;;;;;0.10;0.10;;;12.20;99.90;;;;;;5046297;28;20465;-77
2023/05/13 05:52:54;;;;;;;0.40;0.40;;;11.30;99.90;;;;;;5046227;28;20032;-81
2023/05/13 05:55:20;;;;;;;0.07;0.07;;;11.00;99.90;;;;;;5060757;28;20042;-80
2023/05/13 05:57:45;;;;;;;0.10;0.10;;;10.90;99.90;;;;;;5047679;28;20044;-78
2023/05/13 06:00:12;;;;;;;0.10;0.10;;;10.60;99.90;;;;;;5048667;28;20117;-80
2023/05/13 06:02:38;;;;;;;0.00;0.00;;;10.40;99.90;;;;;;5048320;28;20095;-79
2023/05/13 06:05:04;;;;;;;0.40;0.40;;;10.60;99.90;;;;;;5045956;28;20691;-79
2023/05/13 06:07:29;;;;;;;0.50;0.50;;;10.60;99.90;;;;;;5046057;28;20025;-78
2023/05/13 06:09:55;;;;;;;0.10;0.10;;;10.70;99.90;;;;;;5056314;28;20278;-78
2023/05/13 06:12:21;;;;;;;0.20;0.20;;;10.80;99.90;;;;;;5049683;28;20102;-79
2023/05/13 06:14:50;;;;;;;0.10;0.10;;;10.80;99.90;;;;;;5033063;28;20025;-78
2023/05/13 06:17:15;;;;;;;0.10;0.10;;;11.10;99.90;;;;;;5046759;28;20412;-78
2023/05/13 06:19:41;;;;;;;0.30;0.30;;;10.90;99.90;;;;;;5028878;28;20041;-78
2023/05/13 06:22:08;;;;;;;0.10;0.10;;;10.70;99.90;;;;;;5052712;28;20032;-79
2023/05/13 06:24:34;;;;;;;0.00;0.00;;;10.80;99.90;;;;;;5061355;28;20544;-78
2023/05/13 06:27:00;;;;;;;0.08;0.08;;;10.70;99.90;;;;;;5056333;28;20045;-79
2023/05/13 06:29:26;;;;;;;0.63;0.63;;;10.70;99.90;;;;;;5039326;28;20060;-78
2023/05/13 06:31:52;;;;;;;0.00;0.00;;;11.20;99.90;;;;;;5056838;28;20121;-78
2023/05/13 06:34:18;;;;;;;0.30;0.30;;;11.40;99.90;;;;;;5054928;28;20037;-80
2023/05/13 06:36:43;;;;;;;0.00;0.00;;;11.70;99.90;;;;;;5054968;28;20056;-78
2023/05/13 06:39:11;;;;;;;0.10;0.10;;;12.00;99.90;;;;;;5051023;28;20039;-80
2023/05/13 06:41:37;;;;;;;0.15;0.15;;;12.70;99.90;;;;;;5053792;28;20021;-78
2023/05/13 06:44:03;;;;;;;0.00;0.00;;;13.00;99.90;;;;;;5046563;28;20060;-76
2023/05/13 06:46:29;;;;;;;0.10;0.10;;;12.60;99.90;;;;;;5061033;28;20167;-77
2023/05/13 06:48:56;;;;;;;0.28;0.28;;;12.60;99.90;;;;;;5045222;28;20730;-77
2023/05/13 06:51:22;;;;;;;0.10;0.10;;;15.40;94.60;;;;;;5050442;28;20045;-78
2023/05/13 06:53:48;;;;;;;0.10;0.10;;;14.10;94.80;;;;;;5056385;28;20391;-77
2023/05/13 06:56:13;;;;;;;0.00;0.00;;;13.50;97.40;;;;;;5043835;28;20040;-78
2023/05/13 06:58:39;;;;;;;0.20;0.20;;;13.00;98.60;;;;;;5044068;28;20125;-79
2023/05/13 07:01:05;;;;;;;0.20;0.20;;;12.90;99.30;;;;;;5054681;28;20028;-77
2023/05/13 07:03:30;;;;;;;1.00;0.60;;;12.90;99.90;;;;;;5053135;28;20061;-75
2023/05/13 07:05:56;;;;;;;0.63;0.57;;;12.90;99.40;;;;;;5054305;28;20139;-74
2023/05/13 07:08:22;;;;;;;0.00;0.00;;;12.90;99.40;;;;;;5048206;28;20107;-77
2023/05/13 07:10:47;;;;;;;0.93;0.87;;;13.00;99.90;;;;;;5058716;28;20145;-75
2023/05/13 07:13:13;;;;;;;0.20;0.20;;;12.90;99.40;;;;;;5032407;28;20098;-75
2023/05/13 07:15:39;;;;;;;1.03;0.87;;;12.80;99.20;;;;;;5046677;28;20028;-76
2023/05/13 07:18:05;;;;;;;0.10;0.10;;;12.70;99.20;;;;;;5049925;28;20443;-75
2023/05/13 07:20:31;;;;;;;0.10;0.10;;;12.70;99.60;;;;;;5024692;28;20087;-76
2023/05/13 07:22:57;;;;;;;0.07;0.07;;;12.90;98.60;;;;;;5045886;28;20021;-76
2023/05/13 07:25:23;;;;;;;0.47;0.47;;;12.80;98.90;;;;;;5026701;28;20115;-76
2023/05/13 07:27:49;;;;;;;0.00;0.00;;;12.70;99.70;;;;;;5052631;28;20605;-75
2023/05/13 07:30:15;;;;;;;1.73;1.17;;;12.20;99.90;;;;;;5042990;28;20037;-75
2023/05/13 07:32:40;;;;;;;0.57;0.57;;;12.10;99.90;;;;;;5049287;28;20072;-75
2023/05/13 07:35:07;;;;;;;0.30;0.30;;;11.90;99.90;;;;;;5027582;28;20025;-75
2023/05/13 07:37:33;;;;;;;0.10;0.10;;;12.10;99.90;;;;;;5049170;28;20664;-76
2023/05/13 07:39:58;;;;;;;0.20;0.20;;;12.20;99.90;;;;;;5042196;28;20040;-75
2023/05/13 07:42:26;;;;;;;0.93;0.93;;;12.30;99.90;;;;;;5048195;28;20028;-76
2023/05/13 07:44:51;;;;;;;0.10;0.10;;;12.50;99.90;;;;;;5047365;28;20062;-75
2023/05/13 07:47:17;;;;;;;0.10;0.10;;;12.70;99.60;;;;;;5042416;28;20112;-75
2023/05/13 07:49:43;;;;;;;0.60;0.60;;;12.80;99.10;;;;;;5042304;28;20059;-75
2023/05/13 07:52:09;;;;;;;0.40;0.37;;;13.00;98.70;;;;;;5043003;28;20541;-76
2023/05/13 07:54:34;;;;;;;0.20;0.20;;;13.10;98.30;;;;;;5042299;28;20530;-76
2023/05/13 07:57:00;;;;;;;0.23;0.23;;;13.30;98.00;;;;;;5042813;28;20064;-75
2023/05/13 07:59:25;;;;;;;0.93;0.83;;;13.30;97.70;;;;;;5045759;28;20036;-75
2023/05/13 08:01:51;;;;;;;0.52;0.30;;;13.50;98.50;;;;;;5054415;28;20466;-75
2023/05/13 08:04:17;;;;;;;0.60;0.60;;;13.50;97.70;;;;;;5042255;28;20751;-75
2023/05/13 08:06:43;;;;;;;1.27;0.40;;;13.80;97.90;;;;;;5045745;28;20035;-75
2023/05/13 08:09:11;;;;;;;0.03;0.03;;;14.20;97.30;;;;;;5042139;28;20029;-76
2023/05/13 08:11:37;;;;;;;0.30;0.22;;;14.40;96.10;;;;;;5044576;28;20488;-75
2023/05/13 08:14:03;;;;;;;0.30;0.30;;;14.70;95.40;;;;;;5050075;28;20020;-75
2023/05/13 08:16:29;;;;;;;;;;;15.10;95.10;;;;;;5050455;28;20047;-76
2023/05/13 08:18:55;;;;;;;0.10;0.10;;;15.20;95.10;;;;;;5049888;28;19909;-75
2023/05/13 08:21:20;;;;;;;0.43;0.43;;;15.70;94.40;;;;;;5048161;28;20083;-75
2023/05/13 08:23:48;;;;;;;0.67;0.40;;;16.10;93.80;;;;;;5051206;28;20115;-75
2023/05/13 08:26:14;;;;;;;0.93;0.60;;;16.80;92.30;;;;;;5048272;28;20029;-75
2023/05/13 08:28:40;;;;;;;0.20;0.20;;;15.90;93.40;;;;;;5053094;28;20031;-75
2023/05/13 08:31:06;;;;;;;0.08;0.08;;;15.20;94.20;;;;;;5051106;28;20755;-75
2023/05/13 08:33:31;;;;;;;0.00;0.00;;;15.20;94.90;;;;;;5051517;28;20039;-75
2023/05/13 08:35:58;;;;;;;0.20;0.20;;;14.90;94.50;;;;;;5052530;28;20082;-75
2023/05/13 08:38:24;;;;;;;0.10;0.10;;;14.80;95.70;;;;;;5057764;28;20036;-75
2023/05/13 08:40:50;;;;;;;0.10;0.10;;;14.90;95.70;;;;;;5060073;28;20392;-75
2023/05/13 08:43:18;;;;;;;0.30;0.30;;;14.70;95.80;;;;;;5056881;28;20085;-76
2023/05/13 08:45:46;;;;;;;0.43;0.43;;;14.70;95.90;;;;;;5061892;28;20021;-75
2023/05/13 08:48:15;;;;;;;0.00;0.00;;;14.50;95.30;;;;;;5056838;28;20028;-76
2023/05/13 08:50:41;;;;;;;1.30;0.47;;;14.70;96.00;;;;;;5059234;28;20049;-76
2023/05/13 08:53:08;;;;;;;0.20;0.20;;;14.90;95.60;;;;;;5058421;28;20532;-76
2023/05/13 08:55:34;;;;;;;0.13;0.13;;;15.10;95.50;;;;;;5030850;28;20045;-76
2023/05/13 08:58:00;;;;;;;0.10;0.10;;;14.90;96.60;;;;;;5043917;28;20722;-75
2023/05/13 09:00:25;;;;;;;0.00;0.00;;;15.10;95.80;;;;;;5061600;28;20548;-75
2023/05/13 09:02:51;;;;;;;0.37;0.37;;;15.50;95.00;;;;;;5059180;28;20175;-75
2023/05/13 09:05:17;;;;;;;0.30;0.30;;;16.10;94.60;;;;;;5060000;28;20032;-75
2023/05/13 09:07:43;;;;;;;0.45;0.35;;;16.90;93.50;;;;;;5056471;28;20028;-76
2023/05/13 09:10:09;;;;;;;0.23;0.23;;;18.30;91.10;;;;;;5058696;28;20411;-76
2023/05/13 09:12:41;;;;;;;0.15;0.15;;;17.70;90.30;;;;;;5054762;28;20044;-75
2023/05/13 09:15:15;;;;;;;0.32;0.32;;;18.30;90.10;;;;;;5053053;28;20146;-75
2023/05/13 09:17:42;;;;;;;1.38;0.45;;;18.30;84.70;;;;;;5059932;28;20103;-76
2023/05/13 09:20:12;;;;;;;0.10;0.10;;;18.40;85.60;;;;;;5063687;28;20119;-75
2023/05/13 09:22:43;;;;;;;0.00;0.00;;;19.70;86.60;;;;;;5053821;28;20024;-75
2023/05/13 09:25:12;;;;;;;0.40;0.40;;;20.20;80.70;;;;;;5057261;28;20029;-76
2023/05/13 09:27:40;;;;;;;0.13;0.13;;;19.30;83.50;;;;;;5063490;28;20021;-75
2023/05/13 09:30:07;;;;;;;0.35;0.35;;;22.50;79.20;;;;;;5058610;28;20028;-75
2023/05/13 09:32:33;;;;;;;0.00;0.00;;;22.50;74.10;;;;;;5059324;28;20399;-75
2023/05/13 09:35:08;;;;;;;0.00;0.00;;;23.40;72.00;;;;;;5052227;28;20040;-75
2023/05/13 09:37:34;;;;;;;0.10;0.10;;;21.90;74.90;;;;;;5057824;28;20033;-76
2023/05/13 09:40:01;;;;;;;0.65;0.55;;;23.50;70.10;;;;;;5055647;28;20559;-76
2023/05/13 09:42:26;;;;;;;;;;;25.20;67.60;;;;;;5058680;28;20095;-76
2023/05/13 09:44:52;;;;;;;0.10;0.10;;;22.30;70.50;;;;;;5051843;28;20635;-76
2023/05/13 09:47:18;;;;;;;0.10;0.10;;;20.10;77.80;;;;;;5038339;28;20036;-75
2023/05/13 09:49:55;;;;;;;0.00;0.00;;;20.00;78.00;;;;;;5050814;28;20093;-76
2023/05/13 09:52:21;;;;;;;0.00;0.00;;;20.00;74.70;;;;;;5062632;28;20031;-76
2023/05/13 09:54:47;;;;;;;0.05;0.05;;;20.50;76.90;;;;;;5044357;28;20028;-83
2023/05/13 09:57:13;;;;;;;0.00;0.00;;;20.80;76.20;;;;;;5056926;28;20090;-76
2023/05/13 09:59:40;;;;;;;0.30;0.30;;;25.30;70.00;;;;;;5048310;28;20055;-76
2023/05/13 10:02:07;;;;;;;0.43;0.32;;;25.30;65.60;;;;;;5049547;28;20036;-75
2023/05/13 10:04:33;;;;;;;0.00;0.00;;;22.50;70.60;;;;;;5048418;28;20039;-76
2023/05/13 10:07:02;;;;;;;0.13;0.13;;;20.90;74.00;;;;;;5049433;28;20044;-76
2023/05/13 10:09:32;;;;;;;0.20;0.20;;;20.40;74.30;;;;;;5046833;28;20033;-76
2023/05/13 10:11:59;;;;;;;0.00;0.00;;;20.10;74.60;;;;;;5054489;28;20055;-75
2023/05/13 10:14:25;;;;;;;0.00;0.00;;;19.90;76.10;;;;;;5049371;28;20032;-76
2023/05/13 10:16:51;;;;;;;0.00;0.00;;;20.20;75.90;;;;;;5052141;28;20052;-75
2023/05/13 10:19:17;;;;;;;0.00;0.00;;;20.10;76.80;;;;;;5054948;28;20099;-77
2023/05/13 10:21:43;;;;;;;0.20;0.20;;;19.60;77.80;;;;;;5055296;28;20032;-77
2023/05/13 10:24:09;;;;;;;0.00;0.00;;;19.60;77.50;;;;;;5054119;28;20025;-77
2023/05/13 10:26:36;;;;;;;0.33;0.33;;;19.20;75.30;;;;;;5059897;28;20047;-77
2023/05/13 10:29:03;;;;;;;0.13;0.13;;;19.00;78.00;;;;;;5059746;28;20071;-76
2023/05/13 10:31:29;;;;;;;0.10;0.10;;;18.80;76.20;;;;;;5057548;28;20644;-75
2023/05/13 10:33:54;;;;;;;0.00;0.00;;;19.30;78.00;;;;;;5058931;28;20040;-76
2023/05/13 10:36:58;;;;;;;0.00;0.00;;;19.70;75.90;;;;;;5052162;28;20025;-77
2023/05/13 10:39:54;;;;;;;0.47;0.47;;;19.60;77.80;;;;;;5046695;28;20032;-76
2023/05/13 10:42:43;;;;;;;0.45;0.20;;;20.50;76.60;;;;;;5054612;28;20025;-76
2023/05/13 10:45:10;;;;;;;0.00;0.00;;;19.80;77.60;;;;;;5048422;28;20029;-77
2023/05/13 10:47:36;;;;;;;0.08;0.08;;;19.90;80.10;;;;;;5049369;28;20046;-76
2023/05/13 10:50:24;;;;;;;0.38;0.38;;;19.30;79.50;;;;;;5053185;28;20045;-77
2023/05/13 10:52:55;;;;;;;0.10;0.10;;;19.80;78.20;;;;;;5057540;28;20829;-76
2023/05/13 10:55:21;;;;;;;0.22;0.22;;;19.90;77.80;;;;;;5056008;28;20029;-76
2023/05/13 10:58:13;;;;;;;0.00;0.00;;;19.20;77.50;;;;;;5032372;28;20047;-76
2023/05/13 11:00:43;;;;;;;0.08;0.08;;;19.30;76.00;;;;;;5051739;28;20041;-76
2023/05/13 11:03:18;;;;;;;0.10;0.10;;;19.80;75.40;;;;;;5054510;28;20491;-77
2023/05/13 11:06:03;;;;;;;0.00;0.00;;;19.50;72.30;;;;;;5050358;28;20020;-77
2023/05/13 11:08:43;;;;;;;0.00;0.00;;;19.30;75.40;;;;;;5051528;28;20029;-76
2023/05/13 11:11:21;;;;;;;0.17;0.17;;;19.10;73.60;;;;;;5053392;28;20036;-77
2023/05/13 11:14:04;;;;;;;0.00;0.00;;;18.90;76.20;;;;;;5054456;28;20117;-76
2023/05/13 11:16:30;;;;;;;0.00;0.00;;;18.70;77.60;;;;;;5051974;28;20045;-76
2023/05/13 11:18:56;;;;;;;0.00;0.00;;;18.20;78.10;;;;;;5053662;28;20218;-76
2023/05/13 11:21:35;;;;;;;0.00;0.00;;;17.90;79.80;;;;;;5048508;28;20042;-76
2023/05/13 11:24:04;;;;;;;0.00;0.00;;;17.30;76.10;;;;;;5050656;28;20263;-76
2023/05/13 11:26:55;;;;;;;0.00;0.00;;;17.30;77.90;;;;;;5049266;28;20029;-76
2023/05/13 11:29:32;;;;;;;0.20;0.20;;;17.20;80.00;;;;;;5055958;28;20048;-75
2023/05/13 11:32:00;;;;;;;0.00;0.00;;;16.50;89.00;;;;;;5055489;28;20066;-76
2023/05/13 11:34:26;;;;;;;0.10;0.10;;;16.10;90.20;;;;;;5053327;28;20114;-76
2023/05/13 11:37:04;;;;;;;0.30;0.30;;;16.80;90.90;;;;;;5054571;28;20487;-76
2023/05/13 11:39:31;;;;;;;0.82;0.82;;;17.10;88.90;;;;;;5049842;28;20098;-75
2023/05/13 11:42:00;;;;;;;0.10;0.10;;;17.80;88.00;;;;;;5053650;28;20025;-77
2023/05/13 11:44:26;;;;;;;0.10;0.10;;;18.30;85.30;;;;;;5046321;28;20044;-75
2023/05/13 11:46:59;;;;;;;3.40;1.02;;;18.60;86.00;;;;;;5047039;28;20039;-76
2023/05/13 11:49:42;;;;;;;0.05;0.05;;;18.60;85.80;;;;;;5049540;28;20048;-76
2023/05/13 11:52:10;;;;;;;0.40;0.40;;;18.10;86.60;;;;;;5047624;28;20028;-76
2023/05/13 11:54:52;;;;;;;0.08;0.08;;;17.80;86.10;;;;;;5048017;28;20113;-76
2023/05/13 11:57:25;;;;;;;0.40;0.40;;;17.70;86.20;;;;;;5046470;28;20029;-76
2023/05/13 12:00:01;;;;;;;0.28;0.28;;;17.50;85.50;;;;;;5046979;28;20075;-76
2023/05/13 12:02:37;;;;;;;0.10;0.10;;;17.30;80.70;;;;;;5056789;28;20071;-76
2023/05/13 12:05:07;;;;;;;0.00;0.00;;;17.40;83.40;;;;;;5048401;28;20025;-76
2023/05/13 12:07:34;;;;;;;0.00;0.00;;;17.40;84.50;;;;;;5048943;28;20081;-76
2023/05/13 12:10:02;;;;;;;0.15;0.15;;;17.70;84.20;;;;;;5048979;28;20029;-76
2023/05/13 12:12:29;;;;;;;0.00;0.00;;;17.70;82.70;;;;;;5045334;28;20039;-76
2023/05/13 12:14:58;;;;;;;0.00;0.00;;;17.80;82.00;;;;;;5045236;28;20051;-77
2023/05/13 12:17:25;;;;;;;0.22;0.22;;;17.80;82.10;;;;;;5045767;28;20559;-77
2023/05/13 12:20:08;;;;;;;0.22;0.17;;;17.80;83.30;;;;;;5055626;28;20563;-76
2023/05/13 12:22:34;;;;;;;6.13;0.75;;;17.80;81.60;;;;;;5044525;28;20039;-76
2023/05/13 12:25:37;;;;;;;0.17;0.17;;;18.20;84.30;;;;;;5050859;28;20028;-75
2023/05/13 12:28:08;;;;;;;0.35;0.35;;;18.60;83.80;;;;;;5048126;28;20021;-75
2023/05/13 12:30:40;;;;;;;0.20;0.20;;;19.40;86.20;;;;;;5032107;28;20032;-76
2023/05/13 12:33:15;;;;;;;0.10;0.10;;;19.50;85.50;;;;;;5050821;28;20017;-76
2023/05/13 12:35:41;;;;;;;0.00;0.00;;;19.60;85.00;;;;;;5042920;28;20017;-75
2023/05/13 12:38:12;;;;;;;0.05;0.05;;;19.10;83.70;;;;;;5034812;28;20035;-75
2023/05/13 12:40:38;;;;;;;0.15;0.15;;;18.90;83.20;;;;;;5052826;28;20056;-75
2023/05/13 12:43:04;;;;;;;0.00;0.00;;;18.10;81.60;;;;;;5050042;28;20052;-76
2023/05/13 12:45:31;;;;;;;0.30;0.30;;;17.90;80.70;;;;;;5051234;28;20024;-76
2023/05/13 12:47:58;;;;;;;0.00;0.00;;;18.10;78.00;;;;;;5046136;28;20025;-75
2023/05/13 12:50:25;;;;;;;0.32;0.20;;;18.70;78.90;;;;;;5055257;28;20098;-76
2023/05/13 12:52:52;;;;;;;0.30;0.30;;;19.50;82.00;;;;;;5047934;28;20436;-76